This is the latest recevied weather packets stored in our database for station/object KB5SMY. If no packets are shown the sender has not sent any weather packets the latest 10 day(s).
| Time | Temp. | Humidity | Pressure | Rain* | Wind** | Luminosity | Snow |
|---|---|---|---|---|---|---|---|
| 1777271404 | 23.89° C | 87% | 1005.4 hPa | 0 mm | - | 0 W/m² | - |
| 1777263605 | 24.44° C | 83% | 1005.9 hPa | 0 mm | - | 0 W/m² | - |
| 1777251604 | 27.22° C | 73% | 1004 hPa | 0 mm | - | 11 W/m² | - |
| 1777249332 | 27.78° C | 70% | 1004 hPa | 0 mm | - | 56 W/m² | - |
| 1777246332 | 28.89° C | 68% | 1004.2 hPa | 0 mm | - | 290 W/m² | - |
| 1777243804 | 28.89° C | 70% | 1004.7 hPa | 0 mm | - | 246 W/m² | - |
| 1777237805 | 27.78° C | 75% | 1005.7 hPa | 0 mm | - | 700 W/m² | - |
| 1777232404 | 27.78° C | 76% | 1007.1 hPa | 0 mm | - | 613 W/m² | - |
| 1777229404 | 26.67° C | 78% | 1007.3 hPa | 0 mm | - | 408 W/m² | - |
| 1777228204 | 26.67° C | 79% | 1007.3 hPa | 0 mm | - | 489 W/m² | - |
| 1777222204 | 24.44° C | 84% | 1008.5 hPa | 0 mm | - | 345 W/m² | - |
| 1777219804 | 24.44° C | 85% | 1008.7 hPa | 0 mm | - | 220 W/m² | - |
| 1777219332 | 24.44° C | 86% | 1008.5 hPa | 0 mm | - | 258 W/m² | - |
| 1777218004 | 23.89° C | 86% | 1008.3 hPa | 0 mm | - | 221 W/m² | - |
| 1777217532 | 23.89° C | 86% | 1008.4 hPa | 0 mm | - | 109 W/m² | - |
| 1777214404 | 23.33° C | 87% | 1008 hPa | 0 mm | - | 105 W/m² | - |
| 1777213805 | 23.33° C | 87% | 1008 hPa | 0 mm | - | 109 W/m² | - |
| 1777212604 | 23.33° C | 87% | 1008.1 hPa | 0 mm | - | 114 W/m² | - |
| 1777209004 | 22.78° C | 89% | 1007.5 hPa | 0 mm | - | 97 W/m² | - |
| 1777206604 | 22.22° C | 90% | 1007.1 hPa | 0 mm | - | 39 W/m² | - |
| 1777201204 | 22.22° C | 89% | 1005.9 hPa | 0 mm | - | 0 W/m² | - |
| 1777200004 | 22.78° C | 88% | 1006 hPa | 0 mm | - | 0 W/m² | - |
| 1777198804 | 23.33° C | 87% | 1006 hPa | 0 mm | - | 0 W/m² | - |
| 1777196404 | 23.89° C | 86% | 1006 hPa | 0 mm | - | 0 W/m² | - |
| 1777192804 | 24.44° C | 85% | 1005.8 hPa | 0 mm | - | 0 W/m² | - |
* Rain latest hour (hover to see other rain measurements)
** Current wind speed in m/s (hover to see current wind gust speed)